sensor_id;sensor_type;location;lat;lon;timestamp;temperature;humidity
11536;DHT22;5824;49.336;8.652;2023-03-23T00:02:22;15.70;1.00
11536;DHT22;5824;49.336;8.652;2023-03-23T00:04:48;15.70;1.00
11536;DHT22;5824;49.336;8.652;2023-03-23T00:07:14;15.70;1.00
11536;DHT22;5824;49.336;8.652;2023-03-23T00:09:46;15.70;1.00
11536;DHT22;5824;49.336;8.652;2023-03-23T00:12:12;15.70;1.00
11536;DHT22;5824;49.336;8.652;2023-03-23T00:14:40;15.70;1.00
11536;DHT22;5824;49.336;8.652;2023-03-23T00:17:10;15.70;1.00
11536;DHT22;5824;49.336;8.652;2023-03-23T00:19:37;15.70;1.00
11536;DHT22;5824;49.336;8.652;2023-03-23T00:22:12;15.70;1.00
11536;DHT22;5824;49.336;8.652;2023-03-23T00:24:37;15.70;1.00
11536;DHT22;5824;49.336;8.652;2023-03-23T00:27:03;15.70;1.00
11536;DHT22;5824;49.336;8.652;2023-03-23T00:29:28;15.60;1.00
11536;DHT22;5824;49.336;8.652;2023-03-23T00:31:54;15.60;1.00
11536;DHT22;5824;49.336;8.652;2023-03-23T00:34:22;15.60;1.00
11536;DHT22;5824;49.336;8.652;2023-03-23T00:36:52;15.60;1.00
11536;DHT22;5824;49.336;8.652;2023-03-23T00:39:18;17.20;1.00
11536;DHT22;5824;49.336;8.652;2023-03-23T00:41:45;15.70;1.00
11536;DHT22;5824;49.336;8.652;2023-03-23T00:44:11;15.60;1.00
11536;DHT22;5824;49.336;8.652;2023-03-23T00:46:45;15.60;1.00
11536;DHT22;5824;49.336;8.652;2023-03-23T00:49:15;15.50;1.00
11536;DHT22;5824;49.336;8.652;2023-03-23T00:51:41;15.50;1.00
11536;DHT22;5824;49.336;8.652;2023-03-23T00:54:07;15.50;1.00
11536;DHT22;5824;49.336;8.652;2023-03-23T00:56:33;15.40;1.00
11536;DHT22;5824;49.336;8.652;2023-03-23T00:58:58;15.40;1.00
11536;DHT22;5824;49.336;8.652;2023-03-23T01:01:24;15.40;1.00
11536;DHT22;5824;49.336;8.652;2023-03-23T01:03:50;15.40;1.00
11536;DHT22;5824;49.336;8.652;2023-03-23T01:06:15;15.50;1.00
11536;DHT22;5824;49.336;8.652;2023-03-23T01:08:41;15.50;1.00
11536;DHT22;5824;49.336;8.652;2023-03-23T01:11:15;15.00;1.00
11536;DHT22;5824;49.336;8.652;2023-03-23T01:13:42;15.40;1.00
11536;DHT22;5824;49.336;8.652;2023-03-23T01:16:09;15.40;1.00
11536;DHT22;5824;49.336;8.652;2023-03-23T01:18:35;15.30;1.00
11536;DHT22;5824;49.336;8.652;2023-03-23T01:21:09;15.30;1.00
11536;DHT22;5824;49.336;8.652;2023-03-23T01:23:36;15.30;1.00
11536;DHT22;5824;49.336;8.652;2023-03-23T01:26:11;15.40;1.00
11536;DHT22;5824;49.336;8.652;2023-03-23T01:31:58;15.10;1.00
11536;DHT22;5824;49.336;8.652;2023-03-23T01:34:24;15.00;1.00
11536;DHT22;5824;49.336;8.652;2023-03-23T01:36:49;15.00;1.00
11536;DHT22;5824;49.336;8.652;2023-03-23T01:39:15;15.00;1.00
11536;DHT22;5824;49.336;8.652;2023-03-23T01:41:40;15.00;1.00
11536;DHT22;5824;49.336;8.652;2023-03-23T01:46:40;15.10;1.00
11536;DHT22;5824;49.336;8.652;2023-03-23T01:49:12;15.10;1.00
11536;DHT22;5824;49.336;8.652;2023-03-23T01:51:48;15.10;1.00
11536;DHT22;5824;49.336;8.652;2023-03-23T01:54:16;15.00;1.00
11536;DHT22;5824;49.336;8.652;2023-03-23T01:56:49;15.00;1.00
11536;DHT22;5824;49.336;8.652;2023-03-23T01:59:15;15.00;1.00
11536;DHT22;5824;49.336;8.652;2023-03-23T02:01:42;15.00;1.00
11536;DHT22;5824;49.336;8.652;2023-03-23T02:04:11;14.90;1.00
11536;DHT22;5824;49.336;8.652;2023-03-23T02:06:38;14.90;1.00
11536;DHT22;5824;49.336;8.652;2023-03-23T02:09:04;14.90;1.00
11536;DHT22;5824;49.336;8.652;2023-03-23T02:11:32;14.90;1.00
11536;DHT22;5824;49.336;8.652;2023-03-23T02:13:57;14.90;1.00
11536;DHT22;5824;49.336;8.652;2023-03-23T02:28:01;14.60;1.00
11536;DHT22;5824;49.336;8.652;2023-03-23T02:31:05;14.60;1.00
11536;DHT22;5824;49.336;8.652;2023-03-23T02:34:00;14.70;1.00
11536;DHT22;5824;49.336;8.652;2023-03-23T02:36:41;14.70;1.00
11536;DHT22;5824;49.336;8.652;2023-03-23T02:39:18;14.70;1.00
11536;DHT22;5824;49.336;8.652;2023-03-23T02:41:49;14.70;1.00
11536;DHT22;5824;49.336;8.652;2023-03-23T02:44:17;14.80;1.00
11536;DHT22;5824;49.336;8.652;2023-03-23T02:46:43;14.80;1.00
11536;DHT22;5824;49.336;8.652;2023-03-23T02:49:12;14.80;1.00
11536;DHT22;5824;49.336;8.652;2023-03-23T02:51:39;14.80;1.00
11536;DHT22;5824;49.336;8.652;2023-03-23T02:54:06;14.70;1.00
11536;DHT22;5824;49.336;8.652;2023-03-23T02:56:32;14.70;1.00
11536;DHT22;5824;49.336;8.652;2023-03-23T02:58:59;14.70;1.00
11536;DHT22;5824;49.336;8.652;2023-03-23T03:03:52;14.60;1.00
11536;DHT22;5824;49.336;8.652;2023-03-23T03:06:27;14.60;1.00
11536;DHT22;5824;49.336;8.652;2023-03-23T03:09:01;14.60;1.00
11536;DHT22;5824;49.336;8.652;2023-03-23T03:11:30;14.60;1.00
11536;DHT22;5824;49.336;8.652;2023-03-23T03:14:04;14.50;1.00
11536;DHT22;5824;49.336;8.652;2023-03-23T03:21:41;14.60;1.00
11536;DHT22;5824;49.336;8.652;2023-03-23T03:24:08;14.50;1.00
11536;DHT22;5824;49.336;8.652;2023-03-23T03:26:40;14.60;1.00
11536;DHT22;5824;49.336;8.652;2023-03-23T03:29:16;14.60;1.00
11536;DHT22;5824;49.336;8.652;2023-03-23T03:31:44;14.70;1.00
11536;DHT22;5824;49.336;8.652;2023-03-23T03:34:11;14.70;1.00
11536;DHT22;5824;49.336;8.652;2023-03-23T03:36:37;14.80;1.00
11536;DHT22;5824;49.336;8.652;2023-03-23T03:39:05;14.80;1.00
11536;DHT22;5824;49.336;8.652;2023-03-23T03:41:33;14.80;1.00
11536;DHT22;5824;49.336;8.652;2023-03-23T03:43:59;14.70;1.00
11536;DHT22;5824;49.336;8.652;2023-03-23T03:46:25;14.70;1.00
11536;DHT22;5824;49.336;8.652;2023-03-23T03:48:53;14.80;1.00
11536;DHT22;5824;49.336;8.652;2023-03-23T03:51:18;14.80;1.00
11536;DHT22;5824;49.336;8.652;2023-03-23T03:53:44;14.80;1.00
11536;DHT22;5824;49.336;8.652;2023-03-23T03:56:10;14.90;1.00
11536;DHT22;5824;49.336;8.652;2023-03-23T03:58:36;14.90;1.00
11536;DHT22;5824;49.336;8.652;2023-03-23T04:01:03;14.90;1.00
11536;DHT22;5824;49.336;8.652;2023-03-23T04:03:28;14.80;1.00
11536;DHT22;5824;49.336;8.652;2023-03-23T04:05:54;14.80;1.00
11536;DHT22;5824;49.336;8.652;2023-03-23T04:08:24;14.90;1.00
11536;DHT22;5824;49.336;8.652;2023-03-23T04:10:52;14.80;1.00
11536;DHT22;5824;49.336;8.652;2023-03-23T04:13:17;14.70;1.00
11536;DHT22;5824;49.336;8.652;2023-03-23T04:15:44;14.70;1.00
11536;DHT22;5824;49.336;8.652;2023-03-23T04:18:10;14.70;1.00
11536;DHT22;5824;49.336;8.652;2023-03-23T04:20:37;14.70;1.00
11536;DHT22;5824;49.336;8.652;2023-03-23T04:23:02;16.70;1.00
11536;DHT22;5824;49.336;8.652;2023-03-23T04:25:28;14.70;1.00
11536;DHT22;5824;49.336;8.652;2023-03-23T04:27:58;14.70;1.00
11536;DHT22;5824;49.336;8.652;2023-03-23T04:30:27;14.70;1.00
11536;DHT22;5824;49.336;8.652;2023-03-23T04:32:52;14.70;1.00
11536;DHT22;5824;49.336;8.652;2023-03-23T04:35:22;14.70;1.00
11536;DHT22;5824;49.336;8.652;2023-03-23T04:37:50;14.70;1.00
11536;DHT22;5824;49.336;8.652;2023-03-23T04:40:16;14.70;1.00
11536;DHT22;5824;49.336;8.652;2023-03-23T04:42:43;14.70;1.00
11536;DHT22;5824;49.336;8.652;2023-03-23T04:45:13;14.60;1.00
11536;DHT22;5824;49.336;8.652;2023-03-23T04:47:39;14.60;1.00
11536;DHT22;5824;49.336;8.652;2023-03-23T04:50:11;14.60;1.00
11536;DHT22;5824;49.336;8.652;2023-03-23T04:52:38;14.60;1.00
11536;DHT22;5824;49.336;8.652;2023-03-23T04:55:06;14.60;1.00
11536;DHT22;5824;49.336;8.652;2023-03-23T04:57:32;14.20;1.00
11536;DHT22;5824;49.336;8.652;2023-03-23T04:59:58;14.50;1.00
11536;DHT22;5824;49.336;8.652;2023-03-23T05:02:24;14.40;1.00
11536;DHT22;5824;49.336;8.652;2023-03-23T05:04:50;14.40;1.00
11536;DHT22;5824;49.336;8.652;2023-03-23T05:07:16;14.40;1.00
11536;DHT22;5824;49.336;8.652;2023-03-23T05:09:46;14.50;1.00
11536;DHT22;5824;49.336;8.652;2023-03-23T05:12:12;14.40;1.00
11536;DHT22;5824;49.336;8.652;2023-03-23T05:14:41;14.30;1.00
11536;DHT22;5824;49.336;8.652;2023-03-23T05:17:06;14.20;1.00
11536;DHT22;5824;49.336;8.652;2023-03-23T05:19:32;14.00;1.00
11536;DHT22;5824;49.336;8.652;2023-03-23T05:21:58;13.80;1.00
11536;DHT22;5824;49.336;8.652;2023-03-23T05:24:31;13.70;1.00
11536;DHT22;5824;49.336;8.652;2023-03-23T05:26:58;13.70;1.00
11536;DHT22;5824;49.336;8.652;2023-03-23T05:29:24;13.60;1.00
11536;DHT22;5824;49.336;8.652;2023-03-23T05:31:51;13.50;1.00
11536;DHT22;5824;49.336;8.652;2023-03-23T05:34:18;13.60;1.00
11536;DHT22;5824;49.336;8.652;2023-03-23T05:36:44;13.70;1.00
11536;DHT22;5824;49.336;8.652;2023-03-23T05:39:11;13.80;1.00
11536;DHT22;5824;49.336;8.652;2023-03-23T05:41:37;13.90;1.00
11536;DHT22;5824;49.336;8.652;2023-03-23T05:44:03;14.00;1.00
11536;DHT22;5824;49.336;8.652;2023-03-23T05:46:29;13.80;1.00
11536;DHT22;5824;49.336;8.652;2023-03-23T05:48:54;13.70;1.00
11536;DHT22;5824;49.336;8.652;2023-03-23T05:51:20;13.70;1.00
11536;DHT22;5824;49.336;8.652;2023-03-23T05:53:46;13.90;1.00
11536;DHT22;5824;49.336;8.652;2023-03-23T05:56:12;14.00;1.00
11536;DHT22;5824;49.336;8.652;2023-03-23T05:58:38;14.20;1.00
11536;DHT22;5824;49.336;8.652;2023-03-23T06:01:07;14.30;1.00
11536;DHT22;5824;49.336;8.652;2023-03-23T06:03:33;14.40;1.00
11536;DHT22;5824;49.336;8.652;2023-03-23T06:06:02;14.60;1.00
11536;DHT22;5824;49.336;8.652;2023-03-23T06:08:27;14.60;1.00
11536;DHT22;5824;49.336;8.652;2023-03-23T06:10:53;14.70;1.00
11536;DHT22;5824;49.336;8.652;2023-03-23T06:13:19;14.70;1.00
11536;DHT22;5824;49.336;8.652;2023-03-23T06:15:44;14.80;1.00
11536;DHT22;5824;49.336;8.652;2023-03-23T06:18:10;14.80;1.00
11536;DHT22;5824;49.336;8.652;2023-03-23T06:20:38;14.90;1.00
11536;DHT22;5824;49.336;8.652;2023-03-23T06:23:04;15.00;1.00
11536;DHT22;5824;49.336;8.652;2023-03-23T06:25:30;15.00;1.00
11536;DHT22;5824;49.336;8.652;2023-03-23T06:27:55;15.10;1.00
11536;DHT22;5824;49.336;8.652;2023-03-23T06:30:21;15.10;1.00
11536;DHT22;5824;49.336;8.652;2023-03-23T06:32:47;15.10;1.00
11536;DHT22;5824;49.336;8.652;2023-03-23T06:35:14;15.20;1.00
11536;DHT22;5824;49.336;8.652;2023-03-23T06:37:40;15.20;1.00
11536;DHT22;5824;49.336;8.652;2023-03-23T06:40:07;15.20;1.00
11536;DHT22;5824;49.336;8.652;2023-03-23T06:42:33;15.20;1.00
11536;DHT22;5824;49.336;8.652;2023-03-23T06:44:59;15.30;1.00
11536;DHT22;5824;49.336;8.652;2023-03-23T06:47:27;15.30;1.00
11536;DHT22;5824;49.336;8.652;2023-03-23T06:49:55;15.40;1.00
11536;DHT22;5824;49.336;8.652;2023-03-23T06:52:21;15.40;1.00
11536;DHT22;5824;49.336;8.652;2023-03-23T06:54:48;15.40;1.00
11536;DHT22;5824;49.336;8.652;2023-03-23T06:57:14;15.50;1.00
11536;DHT22;5824;49.336;8.652;2023-03-23T06:59:40;15.40;1.00
11536;DHT22;5824;49.336;8.652;2023-03-23T07:02:08;15.40;1.00
11536;DHT22;5824;49.336;8.652;2023-03-23T07:04:35;16.00;1.00
11536;DHT22;5824;49.336;8.652;2023-03-23T07:07:01;15.40;1.00
11536;DHT22;5824;49.336;8.652;2023-03-23T07:09:27;15.40;1.00
11536;DHT22;5824;49.336;8.652;2023-03-23T07:11:52;15.50;1.00
11536;DHT22;5824;49.336;8.652;2023-03-23T07:14:18;15.70;1.00
11536;DHT22;5824;49.336;8.652;2023-03-23T07:16:44;15.70;1.00
11536;DHT22;5824;49.336;8.652;2023-03-23T07:19:09;15.70;1.00
11536;DHT22;5824;49.336;8.652;2023-03-23T07:21:35;15.60;1.00
11536;DHT22;5824;49.336;8.652;2023-03-23T07:24:01;15.60;1.00
11536;DHT22;5824;49.336;8.652;2023-03-23T07:26:26;15.40;1.00
11536;DHT22;5824;49.336;8.652;2023-03-23T07:28:52;15.10;1.00
11536;DHT22;5824;49.336;8.652;2023-03-23T07:31:17;15.10;1.00
11536;DHT22;5824;49.336;8.652;2023-03-23T07:33:43;15.00;1.00
11536;DHT22;5824;49.336;8.652;2023-03-23T07:36:09;15.00;1.00
11536;DHT22;5824;49.336;8.652;2023-03-23T07:38:35;15.00;1.00
11536;DHT22;5824;49.336;8.652;2023-03-23T07:41:01;15.00;1.00
11536;DHT22;5824;49.336;8.652;2023-03-23T07:43:27;15.00;1.00
11536;DHT22;5824;49.336;8.652;2023-03-23T07:45:52;15.10;1.00
11536;DHT22;5824;49.336;8.652;2023-03-23T07:50:44;15.20;1.00
11536;DHT22;5824;49.336;8.652;2023-03-23T07:53:10;15.20;1.00
11536;DHT22;5824;49.336;8.652;2023-03-23T07:55:36;15.30;1.00
11536;DHT22;5824;49.336;8.652;2023-03-23T07:58:02;15.30;1.00
11536;DHT22;5824;49.336;8.652;2023-03-23T08:00:28;15.40;1.00
11536;DHT22;5824;49.336;8.652;2023-03-23T08:02:56;15.60;1.00
11536;DHT22;5824;49.336;8.652;2023-03-23T08:05:23;15.70;1.00
11536;DHT22;5824;49.336;8.652;2023-03-23T08:07:52;15.90;1.00
11536;DHT22;5824;49.336;8.652;2023-03-23T08:10:19;16.30;1.00
11536;DHT22;5824;49.336;8.652;2023-03-23T08:12:51;15.90;1.00
11536;DHT22;5824;49.336;8.652;2023-03-23T08:15:17;16.00;1.00
11536;DHT22;5824;49.336;8.652;2023-03-23T08:17:42;16.10;1.00
11536;DHT22;5824;49.336;8.652;2023-03-23T08:20:10;16.10;1.00
11536;DHT22;5824;49.336;8.652;2023-03-23T08:22:43;16.10;1.00
11536;DHT22;5824;49.336;8.652;2023-03-23T08:25:11;16.20;1.00
11536;DHT22;5824;49.336;8.652;2023-03-23T08:27:37;16.30;1.00
11536;DHT22;5824;49.336;8.652;2023-03-23T08:30:07;16.30;1.00
11536;DHT22;5824;49.336;8.652;2023-03-23T08:32:33;16.30;1.00
11536;DHT22;5824;49.336;8.652;2023-03-23T08:35:00;16.30;1.00
11536;DHT22;5824;49.336;8.652;2023-03-23T08:37:25;16.10;1.00
11536;DHT22;5824;49.336;8.652;2023-03-23T08:39:54;16.20;1.00
11536;DHT22;5824;49.336;8.652;2023-03-23T08:42:20;16.30;1.00
11536;DHT22;5824;49.336;8.652;2023-03-23T08:44:45;16.50;1.00
11536;DHT22;5824;49.336;8.652;2023-03-23T08:47:11;16.40;1.00
11536;DHT22;5824;49.336;8.652;2023-03-23T08:49:36;16.50;1.00
11536;DHT22;5824;49.336;8.652;2023-03-23T08:52:03;16.50;1.00
11536;DHT22;5824;49.336;8.652;2023-03-23T08:54:28;15.50;1.00
11536;DHT22;5824;49.336;8.652;2023-03-23T08:56:58;16.80;1.00
11536;DHT22;5824;49.336;8.652;2023-03-23T08:59:24;16.80;1.00
11536;DHT22;5824;49.336;8.652;2023-03-23T09:01:50;17.10;1.00
11536;DHT22;5824;49.336;8.652;2023-03-23T09:04:15;17.10;1.00
11536;DHT22;5824;49.336;8.652;2023-03-23T09:06:42;17.40;1.00
11536;DHT22;5824;49.336;8.652;2023-03-23T09:09:08;17.60;1.00
11536;DHT22;5824;49.336;8.652;2023-03-23T09:11:35;17.60;1.00
11536;DHT22;5824;49.336;8.652;2023-03-23T09:14:03;17.40;1.00
11536;DHT22;5824;49.336;8.652;2023-03-23T09:16:29;17.30;1.00
11536;DHT22;5824;49.336;8.652;2023-03-23T09:18:55;17.40;1.00
11536;DHT22;5824;49.336;8.652;2023-03-23T09:21:23;17.30;1.00
11536;DHT22;5824;49.336;8.652;2023-03-23T09:23:48;17.20;1.00
11536;DHT22;5824;49.336;8.652;2023-03-23T09:26:14;17.10;1.00
11536;DHT22;5824;49.336;8.652;2023-03-23T09:28:40;16.90;1.00
11536;DHT22;5824;49.336;8.652;2023-03-23T09:31:06;17.00;1.00
11536;DHT22;5824;49.336;8.652;2023-03-23T09:33:31;17.00;1.00
11536;DHT22;5824;49.336;8.652;2023-03-23T09:36:00;16.90;1.00
11536;DHT22;5824;49.336;8.652;2023-03-23T09:38:27;16.90;1.00
11536;DHT22;5824;49.336;8.652;2023-03-23T09:40:59;17.10;1.00
11536;DHT22;5824;49.336;8.652;2023-03-23T09:49:21;17.10;1.00
11536;DHT22;5824;49.336;8.652;2023-03-23T09:54:25;17.20;1.00
11536;DHT22;5824;49.336;8.652;2023-03-23T09:56:52;17.40;1.00
11536;DHT22;5824;49.336;8.652;2023-03-23T09:59:39;17.60;1.00
11536;DHT22;5824;49.336;8.652;2023-03-23T10:02:21;17.30;1.00
11536;DHT22;5824;49.336;8.652;2023-03-23T10:04:55;16.90;1.00
11536;DHT22;5824;49.336;8.652;2023-03-23T10:07:26;16.70;1.00
11536;DHT22;5824;49.336;8.652;2023-03-23T10:09:56;16.60;1.00
11536;DHT22;5824;49.336;8.652;2023-03-23T10:15:16;16.50;1.00
11536;DHT22;5824;49.336;8.652;2023-03-23T10:17:57;16.60;1.00
11536;DHT22;5824;49.336;8.652;2023-03-23T10:20:32;16.80;1.00
11536;DHT22;5824;49.336;8.652;2023-03-23T10:25:54;17.50;1.00
11536;DHT22;5824;49.336;8.652;2023-03-23T10:28:37;17.70;1.00
11536;DHT22;5824;49.336;8.652;2023-03-23T10:31:03;17.80;1.00
11536;DHT22;5824;49.336;8.652;2023-03-23T10:33:40;17.70;1.00
11536;DHT22;5824;49.336;8.652;2023-03-23T10:36:30;17.60;1.00
11536;DHT22;5824;49.336;8.652;2023-03-23T10:39:13;17.40;1.00
11536;DHT22;5824;49.336;8.652;2023-03-23T10:41:40;17.40;1.00
11536;DHT22;5824;49.336;8.652;2023-03-23T10:46:47;17.20;1.00
11536;DHT22;5824;49.336;8.652;2023-03-23T10:49:22;16.90;1.00
11536;DHT22;5824;49.336;8.652;2023-03-23T10:52:02;16.90;1.00
11536;DHT22;5824;49.336;8.652;2023-03-23T10:54:39;17.00;1.00
11536;DHT22;5824;49.336;8.652;2023-03-23T10:57:34;17.20;1.00
11536;DHT22;5824;49.336;8.652;2023-03-23T11:02:42;17.40;1.00
11536;DHT22;5824;49.336;8.652;2023-03-23T11:05:24;17.10;1.00
11536;DHT22;5824;49.336;8.652;2023-03-23T11:07:55;17.00;1.00
11536;DHT22;5824;49.336;8.652;2023-03-23T11:10:36;16.70;1.00
11536;DHT22;5824;49.336;8.652;2023-03-23T11:13:02;17.00;1.00
11536;DHT22;5824;49.336;8.652;2023-03-23T11:15:35;16.90;1.00
11536;DHT22;5824;49.336;8.652;2023-03-23T11:18:05;16.70;1.00
11536;DHT22;5824;49.336;8.652;2023-03-23T11:20:39;16.50;1.00
11536;DHT22;5824;49.336;8.652;2023-03-23T11:23:22;16.40;1.00
11536;DHT22;5824;49.336;8.652;2023-03-23T11:25:55;16.20;1.00
11536;DHT22;5824;49.336;8.652;2023-03-23T11:28:22;16.00;1.00
11536;DHT22;5824;49.336;8.652;2023-03-23T11:30:53;16.00;1.00
11536;DHT22;5824;49.336;8.652;2023-03-23T11:33:19;16.10;1.00
11536;DHT22;5824;49.336;8.652;2023-03-23T11:35:45;16.30;1.00
11536;DHT22;5824;49.336;8.652;2023-03-23T11:38:17;16.70;1.00
11536;DHT22;5824;49.336;8.652;2023-03-23T11:40:48;16.80;1.00
11536;DHT22;5824;49.336;8.652;2023-03-23T11:43:24;16.80;1.00
11536;DHT22;5824;49.336;8.652;2023-03-23T11:46:02;16.90;1.00
11536;DHT22;5824;49.336;8.652;2023-03-23T11:49:05;16.80;1.00
11536;DHT22;5824;49.336;8.652;2023-03-23T11:51:41;16.80;1.00
11536;DHT22;5824;49.336;8.652;2023-03-23T11:54:30;16.70;1.00
11536;DHT22;5824;49.336;8.652;2023-03-23T11:56:57;16.70;1.00
11536;DHT22;5824;49.336;8.652;2023-03-23T11:59:31;16.60;1.00
11536;DHT22;5824;49.336;8.652;2023-03-23T12:04:54;16.40;1.00
11536;DHT22;5824;49.336;8.652;2023-03-23T12:19:10;16.30;1.00
11536;DHT22;5824;49.336;8.652;2023-03-23T12:30:04;16.20;1.00
11536;DHT22;5824;49.336;8.652;2023-03-23T12:33:02;16.20;1.00
11536;DHT22;5824;49.336;8.652;2023-03-23T12:35:44;16.10;1.00
11536;DHT22;5824;49.336;8.652;2023-03-23T12:38:32;16.10;1.00
11536;DHT22;5824;49.336;8.652;2023-03-23T12:43:57;15.90;1.00
11536;DHT22;5824;49.336;8.652;2023-03-23T12:49:50;16.00;1.00
11536;DHT22;5824;49.336;8.652;2023-03-23T12:52:23;16.00;1.00
11536;DHT22;5824;49.336;8.652;2023-03-23T13:00:29;17.30;1.00
11536;DHT22;5824;49.336;8.652;2023-03-23T13:05:47;16.10;1.00
11536;DHT22;5824;49.336;8.652;2023-03-23T13:08:27;16.10;1.00
11536;DHT22;5824;49.336;8.652;2023-03-23T13:10:57;16.00;1.00
11536;DHT22;5824;49.336;8.652;2023-03-23T13:21:49;16.20;1.00
11536;DHT22;5824;49.336;8.652;2023-03-23T13:24:20;16.20;1.00
11536;DHT22;5824;49.336;8.652;2023-03-23T13:26:49;16.20;1.00
11536;DHT22;5824;49.336;8.652;2023-03-23T13:29:18;16.00;1.00
11536;DHT22;5824;49.336;8.652;2023-03-23T13:31:45;16.10;1.00
11536;DHT22;5824;49.336;8.652;2023-03-23T13:34:31;16.10;1.00
11536;DHT22;5824;49.336;8.652;2023-03-23T13:37:06;16.10;1.00
11536;DHT22;5824;49.336;8.652;2023-03-23T13:42:26;16.10;1.00
11536;DHT22;5824;49.336;8.652;2023-03-23T13:45:04;16.10;1.00
11536;DHT22;5824;49.336;8.652;2023-03-23T13:47:37;16.10;1.00
11536;DHT22;5824;49.336;8.652;2023-03-23T14:03:59;15.90;1.00
11536;DHT22;5824;49.336;8.652;2023-03-23T14:06:10;16.00;1.00
11536;DHT22;5824;49.336;8.652;2023-03-23T14:08:40;16.20;1.00
11536;DHT22;5824;49.336;8.652;2023-03-23T14:11:27;16.50;1.00
11536;DHT22;5824;49.336;8.652;2023-03-23T14:14:06;16.60;1.00
11536;DHT22;5824;49.336;8.652;2023-03-23T14:16:39;16.70;1.00
11536;DHT22;5824;49.336;8.652;2023-03-23T14:19:24;17.00;1.00
11536;DHT22;5824;49.336;8.652;2023-03-23T14:22:00;17.00;1.00
11536;DHT22;5824;49.336;8.652;2023-03-23T14:24:28;17.00;1.00
11536;DHT22;5824;49.336;8.652;2023-03-23T14:29:35;16.90;1.00
11536;DHT22;5824;49.336;8.652;2023-03-23T14:32:02;16.90;1.00
11536;DHT22;5824;49.336;8.652;2023-03-23T14:34:31;16.90;1.00
11536;DHT22;5824;49.336;8.652;2023-03-23T14:36:58;17.00;1.00
11536;DHT22;5824;49.336;8.652;2023-03-23T14:39:29;16.80;1.00
11536;DHT22;5824;49.336;8.652;2023-03-23T14:42:05;16.50;1.00
11536;DHT22;5824;49.336;8.652;2023-03-23T14:44:34;16.50;1.00
11536;DHT22;5824;49.336;8.652;2023-03-23T14:47:03;16.50;1.00
11536;DHT22;5824;49.336;8.652;2023-03-23T14:49:41;16.40;1.00
11536;DHT22;5824;49.336;8.652;2023-03-23T14:52:16;16.30;1.00
11536;DHT22;5824;49.336;8.652;2023-03-23T14:54:44;16.20;1.00
11536;DHT22;5824;49.336;8.652;2023-03-23T14:59:45;16.10;1.00
11536;DHT22;5824;49.336;8.652;2023-03-23T15:02:14;16.10;1.00
11536;DHT22;5824;49.336;8.652;2023-03-23T15:04:43;16.10;1.00
11536;DHT22;5824;49.336;8.652;2023-03-23T15:07:12;16.10;1.00
11536;DHT22;5824;49.336;8.652;2023-03-23T15:09:41;16.20;1.00
11536;DHT22;5824;49.336;8.652;2023-03-23T15:12:23;16.20;1.00
11536;DHT22;5824;49.336;8.652;2023-03-23T15:15:04;16.30;1.00
11536;DHT22;5824;49.336;8.652;2023-03-23T15:17:33;16.30;1.00
11536;DHT22;5824;49.336;8.652;2023-03-23T15:20:08;16.30;1.00
11536;DHT22;5824;49.336;8.652;2023-03-23T15:22:34;16.30;1.00
11536;DHT22;5824;49.336;8.652;2023-03-23T15:25:20;16.30;1.00
11536;DHT22;5824;49.336;8.652;2023-03-23T15:27:53;16.40;1.00
11536;DHT22;5824;49.336;8.652;2023-03-23T15:32:49;16.50;1.00
11536;DHT22;5824;49.336;8.652;2023-03-23T15:35:24;16.50;1.00
11536;DHT22;5824;49.336;8.652;2023-03-23T15:37:59;16.50;1.00
11536;DHT22;5824;49.336;8.652;2023-03-23T15:40:27;16.50;1.00
11536;DHT22;5824;49.336;8.652;2023-03-23T15:43:33;16.50;1.00
11536;DHT22;5824;49.336;8.652;2023-03-23T15:46:04;16.50;1.00
11536;DHT22;5824;49.336;8.652;2023-03-23T15:48:54;16.40;1.00
11536;DHT22;5824;49.336;8.652;2023-03-23T15:51:21;16.40;1.00
11536;DHT22;5824;49.336;8.652;2023-03-23T15:53:48;16.50;1.00
11536;DHT22;5824;49.336;8.652;2023-03-23T15:56:15;16.40;1.00
11536;DHT22;5824;49.336;8.652;2023-03-23T15:58:41;16.30;1.00
11536;DHT22;5824;49.336;8.652;2023-03-23T16:01:25;16.20;1.00
11536;DHT22;5824;49.336;8.652;2023-03-23T16:03:56;16.20;1.00
11536;DHT22;5824;49.336;8.652;2023-03-23T16:06:25;16.20;1.00
11536;DHT22;5824;49.336;8.652;2023-03-23T16:08:55;16.20;1.00
11536;DHT22;5824;49.336;8.652;2023-03-23T16:11:21;16.20;1.00
11536;DHT22;5824;49.336;8.652;2023-03-23T16:13:47;16.30;1.00
11536;DHT22;5824;49.336;8.652;2023-03-23T16:18:40;16.30;1.00
11536;DHT22;5824;49.336;8.652;2023-03-23T16:21:06;16.40;1.00
11536;DHT22;5824;49.336;8.652;2023-03-23T16:23:31;16.40;1.00
11536;DHT22;5824;49.336;8.652;2023-03-23T16:25:57;16.40;1.00
11536;DHT22;5824;49.336;8.652;2023-03-23T16:28:23;16.30;1.00
11536;DHT22;5824;49.336;8.652;2023-03-23T16:30:48;16.50;1.00
11536;DHT22;5824;49.336;8.652;2023-03-23T16:33:14;16.40;1.00
11536;DHT22;5824;49.336;8.652;2023-03-23T16:35:39;17.50;1.00
11536;DHT22;5824;49.336;8.652;2023-03-23T16:38:06;16.30;1.00
11536;DHT22;5824;49.336;8.652;2023-03-23T16:40:31;16.40;1.00
11536;DHT22;5824;49.336;8.652;2023-03-23T16:42:58;16.40;1.00
11536;DHT22;5824;49.336;8.652;2023-03-23T16:45:24;16.40;1.00
11536;DHT22;5824;49.336;8.652;2023-03-23T16:47:52;16.30;1.00
11536;DHT22;5824;49.336;8.652;2023-03-23T16:50:20;16.30;1.00
11536;DHT22;5824;49.336;8.652;2023-03-23T16:52:46;16.30;1.00
11536;DHT22;5824;49.336;8.652;2023-03-23T16:55:14;16.30;1.00
11536;DHT22;5824;49.336;8.652;2023-03-23T16:57:40;16.30;1.00
11536;DHT22;5824;49.336;8.652;2023-03-23T17:00:09;16.30;1.00
11536;DHT22;5824;49.336;8.652;2023-03-23T17:02:36;16.20;1.00
11536;DHT22;5824;49.336;8.652;2023-03-23T17:05:02;16.10;1.00
11536;DHT22;5824;49.336;8.652;2023-03-23T17:07:27;16.30;1.00
11536;DHT22;5824;49.336;8.652;2023-03-23T17:09:53;16.20;1.00
11536;DHT22;5824;49.336;8.652;2023-03-23T17:12:18;16.20;1.00
11536;DHT22;5824;49.336;8.652;2023-03-23T17:14:45;16.20;1.00
11536;DHT22;5824;49.336;8.652;2023-03-23T17:17:10;16.20;1.00
11536;DHT22;5824;49.336;8.652;2023-03-23T17:19:36;16.20;1.00
11536;DHT22;5824;49.336;8.652;2023-03-23T17:22:02;16.10;1.00
11536;DHT22;5824;49.336;8.652;2023-03-23T17:24:27;16.10;1.00
11536;DHT22;5824;49.336;8.652;2023-03-23T17:26:54;16.10;1.00
11536;DHT22;5824;49.336;8.652;2023-03-23T17:29:20;16.00;1.00
11536;DHT22;5824;49.336;8.652;2023-03-23T17:31:47;16.00;1.00
11536;DHT22;5824;49.336;8.652;2023-03-23T17:34:13;16.00;1.00
11536;DHT22;5824;49.336;8.652;2023-03-23T17:36:38;16.00;1.00
11536;DHT22;5824;49.336;8.652;2023-03-23T17:39:04;15.90;1.00
11536;DHT22;5824;49.336;8.652;2023-03-23T17:41:30;15.90;1.00
11536;DHT22;5824;49.336;8.652;2023-03-23T17:43:56;15.90;1.00
11536;DHT22;5824;49.336;8.652;2023-03-23T17:46:21;15.90;1.00
11536;DHT22;5824;49.336;8.652;2023-03-23T17:48:47;15.90;1.00
11536;DHT22;5824;49.336;8.652;2023-03-23T17:51:12;15.80;1.00
11536;DHT22;5824;49.336;8.652;2023-03-23T17:53:38;15.80;1.00
11536;DHT22;5824;49.336;8.652;2023-03-23T17:56:05;15.80;1.00
11536;DHT22;5824;49.336;8.652;2023-03-23T17:58:30;15.80;1.00
11536;DHT22;5824;49.336;8.652;2023-03-23T18:00:57;15.80;1.00
11536;DHT22;5824;49.336;8.652;2023-03-23T18:03:23;15.80;1.00
11536;DHT22;5824;49.336;8.652;2023-03-23T18:05:49;15.80;1.00
11536;DHT22;5824;49.336;8.652;2023-03-23T18:08:17;15.70;1.00
11536;DHT22;5824;49.336;8.652;2023-03-23T18:10:43;15.80;1.00
11536;DHT22;5824;49.336;8.652;2023-03-23T18:13:08;15.80;1.00
11536;DHT22;5824;49.336;8.652;2023-03-23T18:15:35;15.80;1.00